createdAt,value
2022-08-08T00:00:55.241Z,102006.63
2022-08-08T00:02:03.733Z,102011.34
2022-08-08T00:03:20.406Z,102016.91
2022-08-08T00:04:31.239Z,102016.47
2022-08-08T00:06:00.784Z,102017.47
2022-08-08T00:07:16.046Z,102014.16
2022-08-08T00:08:27.303Z,102004.81
2022-08-08T00:09:54.541Z,102004.16
2022-08-08T00:11:07.851Z,102010.38
2022-08-08T00:12:23.624Z,102014.91
2022-08-08T00:14:16.634Z,102013.06
2022-08-08T00:15:04.994Z,102006.84
2022-08-08T00:16:11.626Z,101998.78
2022-08-08T00:17:23.289Z,102005.19
2022-08-08T00:18:30.535Z,102004.81
2022-08-08T00:19:42.102Z,102004.81
2022-08-08T00:20:52.974Z,102014.53
2022-08-08T00:22:01.882Z,102005.47
2022-08-08T00:23:08.334Z,102009.78
2022-08-08T00:24:16.248Z,102009.78
2022-08-08T00:25:24.620Z,102010.63
2022-08-08T00:26:35.621Z,102010.63
2022-08-08T00:27:42.251Z,102007.94
2022-08-08T00:28:49.944Z,102004.41
2022-08-08T00:29:59.738Z,102001.09
2022-08-08T00:32:20.678Z,102002.78
2022-08-08T00:32:36.114Z,102011.84
2022-08-08T00:34:18.534Z,102000.28
2022-08-08T00:35:27.281Z,102000.28
2022-08-08T00:36:36.275Z,101996.94
2022-08-08T00:38:01.660Z,101999.81
2022-08-08T00:41:06.825Z,102000.03
2022-08-08T00:41:08.927Z,102001.88
2022-08-08T00:42:42.621Z,102004.56
2022-08-08T00:44:17.679Z,102000.41
2022-08-08T00:45:49.734Z,101997.88
2022-08-08T00:47:23.038Z,101999.56
2022-08-08T00:48:59.166Z,101995.03
2022-08-08T00:50:52.313Z,102000.56
2022-08-08T00:52:24.870Z,102000.56
2022-08-08T00:54:15.608Z,102000.56
2022-08-08T00:55:53.726Z,101997.28
2022-08-08T00:57:29.610Z,102001.16
2022-08-08T00:59:08.190Z,101999.06
2022-08-08T01:00:13.849Z,101998.41
2022-08-08T01:01:37.930Z,101990.72
2022-08-08T01:04:01.796Z,101988.44
2022-08-08T01:05:59.483Z,101988.97
2022-08-08T01:07:55.531Z,101993.72
2022-08-08T01:09:35.590Z,101991.38
2022-08-08T01:11:22.059Z,101992.41
2022-08-08T01:13:43.934Z,101988.22
2022-08-08T01:15:09.492Z,101986.38
2022-08-08T01:16:52.995Z,101990.91
2022-08-08T01:18:52.641Z,101988.22
2022-08-08T01:20:35.272Z,101990.09
2022-08-08T01:22:13.587Z,101992.78
2022-08-08T01:24:05.678Z,101989.06
2022-08-08T01:25:42.729Z,101989.91
2022-08-08T01:27:32.992Z,102000.66
2022-08-08T01:29:13.346Z,101988.22
2022-08-08T01:31:00.149Z,101988.06
2022-08-08T01:32:33.985Z,101993.25
2022-08-08T01:34:20.428Z,101989.72
2022-08-08T01:36:01.411Z,101994.91
2022-08-08T01:37:57.647Z,101998.25
2022-08-08T01:39:35.078Z,101996.22
2022-08-08T01:40:54.560Z,102001.41
2022-08-08T01:42:06.028Z,101997.50
2022-08-08T01:43:38.759Z,102001.47
2022-08-08T01:45:03.631Z,102001.28
2022-08-08T01:46:29.923Z,101997.38
2022-08-08T01:48:16.176Z,102000.91
2022-08-08T01:49:37.546Z,102000.06
2022-08-08T01:51:30.595Z,102000.25
2022-08-08T01:55:17.604Z,102001.28
2022-08-08T01:55:26.666Z,102005.16
2022-08-08T01:56:28.109Z,102006.59
2022-08-08T01:58:12.032Z,101993.53
2022-08-08T01:59:10.745Z,101998.25
2022-08-08T02:00:20.327Z,101998.63
2022-08-08T02:01:59.718Z,101993.44
2022-08-08T02:03:54.783Z,101990.28
2022-08-08T02:04:57.582Z,102000.56
2022-08-08T02:06:31.598Z,101999.09
2022-08-08T02:07:51.158Z,102001.13
2022-08-08T02:09:17.486Z,102000.50
2022-08-08T02:10:45.218Z,101997.97
2022-08-08T02:11:59.361Z,101999.19
2022-08-08T02:13:54.296Z,102000.25
2022-08-08T02:14:55.240Z,101996.06
2022-08-08T02:16:21.130Z,102003.28
2022-08-08T02:17:36.509Z,101993.94
2022-08-08T02:18:58.712Z,101996.63
2022-08-08T02:20:59.874Z,102000.31
2022-08-08T02:22:02.733Z,101998.66
2022-08-08T02:23:22.665Z,101994.34
2022-08-08T02:24:29.618Z,102003.38
2022-08-08T02:25:46.821Z,101992.00
2022-08-08T02:26:55.383Z,101999.25
2022-08-08T02:28:04.360Z,101991.19
2022-08-08T02:29:24.705Z,101997.56
2022-08-08T02:30:37.889Z,102000.44
2022-08-08T02:32:22.283Z,101999.97
2022-08-08T02:34:08.124Z,102006.38
2022-08-08T02:36:04.395Z,102006.56
2022-08-08T02:37:52.996Z,102001.56
2022-08-08T02:38:56.086Z,102000.72
2022-08-08T02:40:09.858Z,102007.94
2022-08-08T02:42:04.487Z,102006.28
2022-08-08T02:44:37.668Z,102008.13
2022-08-08T02:45:24.643Z,101998.41
2022-08-08T02:46:52.976Z,102002.28
2022-08-08T02:48:28.763Z,102009.50
2022-08-08T02:50:00.249Z,102007.00
2022-08-08T02:51:55.461Z,102005.34
2022-08-08T02:53:47.317Z,102009.41
2022-08-08T02:55:19.912Z,102007.75
2022-08-08T02:56:52.303Z,102011.47
2022-08-08T02:58:43.442Z,102014.97
2022-08-08T03:00:50.678Z,102009.59
2022-08-08T03:02:22.149Z,102015.63
2022-08-08T03:05:04.165Z,102007.38
2022-08-08T03:06:24.067Z,102011.75
2022-08-08T03:08:35.279Z,102020.59
2022-08-08T03:10:17.686Z,102020.59
2022-08-08T03:12:13.971Z,102022.28
2022-08-08T03:15:56.482Z,102022.91
2022-08-08T03:16:05.265Z,102028.28
2022-08-08T03:17:20.016Z,102030.81
2022-08-08T03:18:34.465Z,102024.59
2022-08-08T03:19:58.601Z,102024.59
2022-08-08T03:21:09.985Z,102034.13
2022-08-08T03:22:38.766Z,102027.75
2022-08-08T03:23:59.555Z,102024.03
2022-08-08T03:25:04.872Z,102029.03
2022-08-08T03:26:27.685Z,102025.34
2022-08-08T03:27:41.875Z,102030.53
2022-08-08T03:28:51.268Z,102027.47
2022-08-08T03:30:02.345Z,102032.63
2022-08-08T03:31:25.474Z,102032.44
2022-08-08T03:32:56.906Z,102032.25
2022-08-08T03:34:02.367Z,102035.59
2022-08-08T03:35:09.442Z,102038.09
2022-08-08T03:36:16.028Z,102034.41
2022-08-08T03:38:54.074Z,102037.72
2022-08-08T03:38:58.198Z,102034.88
2022-08-08T03:40:29.960Z,102040.03
2022-08-08T03:42:28.188Z,102032.81
2022-08-08T03:43:18.059Z,102036.13
2022-08-08T03:44:32.577Z,102038.63
2022-08-08T03:46:05.705Z,102040.31
2022-08-08T03:47:14.010Z,102029.38
2022-08-08T03:49:09.582Z,102041.59
2022-08-08T03:49:58.379Z,102040.59
2022-08-08T03:51:08.933Z,102037.91
2022-08-08T03:52:17.958Z,102043.09
2022-08-08T03:53:38.067Z,102043.09
2022-08-08T03:55:01.880Z,102045.56
2022-08-08T03:56:11.461Z,102040.22
2022-08-08T03:58:34.328Z,102043.94
2022-08-08T03:58:59.237Z,102041.25
2022-08-08T04:00:11.277Z,102037.72
2022-08-08T04:02:12.698Z,102043.09
2022-08-08T04:02:54.745Z,102044.09
2022-08-08T04:04:01.979Z,102039.75
2022-08-08T04:05:13.417Z,102042.25
2022-08-08T04:06:17.454Z,102044.94
2022-08-08T04:07:21.785Z,102045.75
2022-08-08T04:08:33.241Z,102046.59
2022-08-08T04:10:00.598Z,102041.41
2022-08-08T04:11:11.316Z,102041.25
2022-08-08T04:12:21.493Z,102044.72
2022-08-08T04:13:25.796Z,102045.56
2022-08-08T04:14:38.622Z,102044.72
2022-08-08T04:15:54.376Z,102050.94
2022-08-08T04:16:59.590Z,102048.91
2022-08-08T04:18:01.829Z,102055.94
2022-08-08T04:19:23.572Z,102046.03
2022-08-08T04:20:31.860Z,102045.66
2022-08-08T04:21:37.995Z,102054.38
2022-08-08T04:22:44.794Z,102052.31
2022-08-08T04:24:12.036Z,102050.28
2022-08-08T04:25:18.019Z,102042.69
2022-08-08T04:26:21.666Z,102053.09
2022-08-08T04:28:01.915Z,102045.66
2022-08-08T04:28:54.439Z,102048.78
2022-08-08T04:30:00.856Z,102052.13
2022-08-08T04:31:09.574Z,102047.41
2022-08-08T04:32:30.948Z,102048.06
2022-08-08T04:33:41.989Z,102054.69
2022-08-08T04:34:55.655Z,102054.50
2022-08-08T04:36:06.701Z,102042.56
2022-08-08T04:37:09.701Z,102053.13
2022-08-08T04:38:21.213Z,102049.19
2022-08-08T04:39:48.088Z,102051.53
2022-08-08T04:40:53.368Z,102050.28
2022-08-08T04:41:59.028Z,102047.22
2022-08-08T04:43:05.556Z,102045.00
2022-08-08T04:44:16.952Z,102049.97
2022-08-08T04:45:23.364Z,102049.63
2022-08-08T04:46:31.030Z,102044.84
2022-08-08T04:47:43.485Z,102046.16
2022-08-08T04:48:51.836Z,102043.06
2022-08-08T04:49:58.958Z,102050.75
2022-08-08T04:51:27.937Z,102047.50
2022-08-08T04:52:39.667Z,102049.78
2022-08-08T04:54:36.504Z,102052.28
2022-08-08T04:55:12.050Z,102049.84
2022-08-08T04:56:14.863Z,102048.66
2022-08-08T04:57:19.503Z,102052.78
2022-08-08T04:58:23.107Z,102047.03
2022-08-08T04:59:30.114Z,102049.31
2022-08-08T05:00:33.979Z,102045.44
2022-08-08T05:01:48.624Z,102017.34
2022-08-08T05:02:53.880Z,102052.72
2022-08-08T05:04:09.076Z,102049.66
2022-08-08T05:05:20.372Z,102047.38
2022-08-08T05:06:44.223Z,102053.84
2022-08-08T05:07:47.669Z,102053.66
2022-08-08T05:08:53.513Z,102054.75
2022-08-08T05:09:58.910Z,102052.50
2022-08-08T05:11:03.638Z,102057.47
2022-08-08T05:12:07.064Z,102057.75
2022-08-08T05:13:17.810Z,102059.84
2022-08-08T05:14:21.172Z,102055.75
2022-08-08T05:16:55.079Z,102052.66
2022-08-08T05:17:00.949Z,102060.97
2022-08-08T05:18:05.762Z,102043.72
2022-08-08T05:20:11.573Z,102051.28
2022-08-08T05:20:40.436Z,102057.31
2022-08-08T05:21:58.210Z,102063.94
2022-08-08T05:23:04.462Z,102060.22
2022-08-08T05:24:10.636Z,102061.69
2022-08-08T05:25:15.716Z,102054.41
2022-08-08T05:26:19.987Z,102065.41
2022-08-08T05:27:24.245Z,102064.16
2022-08-08T05:28:56.745Z,102067.06
2022-08-08T05:29:53.520Z,102067.69
2022-08-08T05:31:19.209Z,102066.88
2022-08-08T05:32:27.314Z,102065.22
2022-08-08T05:33:48.539Z,102065.22
2022-08-08T05:34:54.794Z,102060.84
2022-08-08T05:36:02.385Z,102063.13
2022-08-08T05:37:07.619Z,102068.31
2022-08-08T05:38:32.057Z,102068.31
2022-08-08T05:39:46.538Z,102069.31
2022-08-08T05:40:57.889Z,102067.66
2022-08-08T05:42:03.148Z,102073.06
2022-08-08T05:43:39.458Z,102072.22
2022-08-08T05:44:45.991Z,102070.56
2022-08-08T05:46:03.035Z,102068.69
2022-08-08T05:47:09.214Z,102065.38
2022-08-08T05:48:16.953Z,102074.91
2022-08-08T05:49:32.858Z,102073.69
2022-08-08T05:50:42.113Z,102066.22
2022-08-08T05:51:50.493Z,102065.00
2022-08-08T05:53:22.953Z,102077.88
2022-08-08T05:54:27.740Z,102066.91
2022-08-08T05:56:11.071Z,102075.44
2022-08-08T05:57:57.869Z,102079.22
2022-08-08T05:58:53.903Z,102079.03
2022-08-08T06:00:25.374Z,102082.59
2022-08-08T06:01:57.437Z,102081.41
2022-08-08T06:03:13.110Z,102080.38
2022-08-08T06:04:26.702Z,102081.88
2022-08-08T06:05:36.383Z,102080.06
2022-08-08T06:06:50.251Z,102084.41
2022-08-08T06:08:03.074Z,102089.03
2022-08-08T06:09:59.105Z,102084.47
2022-08-08T06:10:39.541Z,102083.25
2022-08-08T06:11:46.800Z,102083.28
2022-08-08T06:12:51.300Z,102079.94
2022-08-08T06:13:54.908Z,102083.91
2022-08-08T06:15:00.132Z,102091.16
2022-08-08T06:16:05.169Z,102086.19
2022-08-08T06:17:32.225Z,102092.03
2022-08-08T06:18:54.416Z,102093.28
2022-08-08T06:19:58.543Z,102093.69
2022-08-08T06:21:03.370Z,102093.50
2022-08-08T06:23:53.198Z,102092.03
2022-08-08T06:25:03.685Z,102093.06
2022-08-08T06:26:38.774Z,102093.91
2022-08-08T06:27:48.336Z,102111.16
2022-08-08T06:28:54.413Z,102094.75
2022-08-08T06:30:03.888Z,102099.50
2022-08-08T06:31:19.869Z,102098.88
2022-08-08T06:32:30.151Z,102102.41
2022-08-08T06:34:25.670Z,102103.47
2022-08-08T06:35:30.735Z,102103.03
2022-08-08T06:36:53.031Z,102102.00
2022-08-08T06:38:00.674Z,102102.59
2022-08-08T06:39:09.951Z,102107.16
2022-08-08T06:40:16.930Z,102105.69
2022-08-08T06:41:21.157Z,102110.66
2022-08-08T06:42:29.541Z,102111.88
2022-08-08T06:43:37.515Z,102115.22
2022-08-08T06:44:54.098Z,102111.06
2022-08-08T06:45:57.489Z,102120.59
2022-08-08T06:47:02.325Z,102109.34
2022-08-08T06:48:07.024Z,102117.88
2022-08-08T06:49:12.957Z,102114.75
2022-08-08T06:50:31.408Z,102111.00
2022-08-08T06:51:46.864Z,102113.47
2022-08-08T06:52:58.641Z,102111.78
2022-08-08T06:54:03.098Z,102113.84
2022-08-08T06:55:10.142Z,102112.38
2022-08-08T06:56:16.656Z,102117.34
2022-08-08T06:57:19.637Z,102112.56
2022-08-08T06:58:23.135Z,102113.75
2022-08-08T07:00:09.867Z,102112.75
2022-08-08T07:01:11.493Z,102116.47
2022-08-08T07:02:29.658Z,102121.25
2022-08-08T07:03:52.055Z,102115.41
2022-08-08T07:05:21.047Z,102121.22
2022-08-08T07:06:34.415Z,102120.78
2022-08-08T07:07:59.572Z,102115.75
2022-08-08T07:09:15.187Z,102123.44
2022-08-08T07:10:22.663Z,102120.28
2022-08-08T07:11:46.063Z,102112.78
2022-08-08T07:12:55.069Z,102126.94
2022-08-08T07:14:08.659Z,102119.44
2022-08-08T07:15:23.413Z,102117.34
2022-08-08T07:16:51.325Z,102124.81
2022-08-08T07:18:35.668Z,102114.59
2022-08-08T07:19:38.472Z,102115.56
2022-08-08T07:20:50.413Z,102122.22
2022-08-08T07:22:04.986Z,102109.69
2022-08-08T07:23:16.318Z,102117.75
2022-08-08T07:24:34.461Z,102123.75
2022-08-08T07:25:44.147Z,102118.50
2022-08-08T07:27:00.380Z,102118.03
2022-08-08T07:28:19.531Z,102116.56
2022-08-08T07:30:00.411Z,102118.22
2022-08-08T07:30:49.854Z,102113.63
2022-08-08T07:31:53.012Z,102114.44
2022-08-08T07:33:01.429Z,102116.91
2022-08-08T07:34:09.163Z,102112.56
2022-08-08T07:35:14.745Z,102113.56
2022-08-08T07:36:23.101Z,102117.47
2022-08-08T07:37:55.408Z,102119.81
2022-08-08T07:38:53.545Z,102121.44
2022-08-08T07:39:59.910Z,102115.97
2022-08-08T07:41:23.747Z,102120.13
2022-08-08T07:42:33.489Z,102116.28
2022-08-08T07:43:42.236Z,102112.31
2022-08-08T07:44:53.692Z,102116.81
2022-08-08T07:46:18.359Z,102115.34
2022-08-08T07:47:38.365Z,102120.69
2022-08-08T07:48:45.585Z,102121.41
2022-08-08T07:49:49.359Z,102117.22
2022-08-08T07:50:58.733Z,102123.63
2022-08-08T07:52:05.123Z,102123.53
2022-08-08T07:53:52.242Z,102123.69
2022-08-08T07:54:48.893Z,102130.44
2022-08-08T07:55:53.022Z,102129.31
2022-08-08T07:57:08.991Z,102124.69
2022-08-08T07:58:20.112Z,102130.63
2022-08-08T07:59:25.942Z,102128.88
2022-08-08T08:00:40.046Z,102128.56
2022-08-08T08:02:33.481Z,102135.78
2022-08-08T08:03:28.517Z,102129.19
2022-08-08T08:04:41.056Z,102133.34
2022-08-08T08:05:50.805Z,102138.53
2022-08-08T08:06:59.920Z,102133.13
2022-08-08T08:08:06.399Z,102135.38
2022-08-08T08:09:24.043Z,102142.47
2022-08-08T08:10:35.625Z,102142.00
2022-08-08T08:11:53.888Z,102138.59
2022-08-08T08:13:25.497Z,102141.44
2022-08-08T08:15:02.995Z,102137.34
2022-08-08T08:16:12.035Z,102139.94
2022-08-08T08:17:21.467Z,102146.56
2022-08-08T08:18:31.932Z,102149.41
2022-08-08T08:19:45.624Z,102147.03
2022-08-08T08:20:54.289Z,102144.13
2022-08-08T08:22:00.631Z,102144.72
2022-08-08T08:23:27.567Z,102147.22
2022-08-08T08:24:32.513Z,102150.53
2022-08-08T08:25:51.147Z,102147.56
2022-08-08T08:26:56.386Z,102149.81
2022-08-08T08:27:59.446Z,102145.59
2022-08-08T08:29:06.589Z,102145.69
2022-08-08T08:30:11.420Z,102142.63
2022-08-08T08:31:17.471Z,102143.97
2022-08-08T08:32:31.518Z,102149.63
2022-08-08T08:33:41.654Z,102153.28
2022-08-08T08:34:49.293Z,102141.31
2022-08-08T08:36:20.374Z,102144.91
2022-08-08T08:37:21.143Z,102146.66
2022-08-08T08:38:27.453Z,102146.63
2022-08-08T08:39:59.851Z,102146.31
2022-08-08T08:41:01.194Z,102146.88
2022-08-08T08:42:10.316Z,102153.09
2022-08-08T08:43:18.741Z,102147.53
2022-08-08T08:44:23.684Z,102160.16
2022-08-08T08:45:32.086Z,102157.19
2022-08-08T08:46:39.042Z,102153.97
2022-08-08T08:47:46.420Z,102153.72
2022-08-08T08:48:52.533Z,102158.38
2022-08-08T08:49:56.531Z,102157.78
2022-08-08T08:51:03.283Z,102158.28
2022-08-08T08:52:06.986Z,102160.91
2022-08-08T08:53:28.349Z,102158.06
2022-08-08T08:54:45.893Z,102156.78
2022-08-08T08:55:51.099Z,102155.63
2022-08-08T08:56:57.353Z,102156.34
2022-08-08T08:58:00.998Z,102156.00
2022-08-08T08:59:05.538Z,102165.25
2022-08-08T09:00:17.035Z,102158.63
2022-08-08T09:01:23.879Z,102157.31
2022-08-08T09:02:30.618Z,102160.88
2022-08-08T09:03:46.787Z,102160.03
2022-08-08T09:04:57.327Z,102168.56
2022-08-08T09:06:02.126Z,102165.34
2022-08-08T09:07:12.129Z,102175.75
2022-08-08T09:08:21.020Z,102177.16
2022-08-08T09:09:38.832Z,102172.06
2022-08-08T09:10:52.966Z,102166.94
2022-08-08T09:12:01.369Z,102171.09
2022-08-08T09:13:09.565Z,102170.84
2022-08-08T09:14:13.136Z,102169.56
2022-08-08T09:15:24.172Z,102175.81
2022-08-08T09:16:40.828Z,102175.03
2022-08-08T09:17:52.407Z,102177.13
2022-08-08T09:19:00.865Z,102175.69
2022-08-08T09:21:58.260Z,102183.88
2022-08-08T09:22:00.134Z,102183.06
2022-08-08T09:22:58.692Z,102181.97
2022-08-08T09:24:04.100Z,102166.94
2022-08-08T09:25:10.363Z,102180.34
2022-08-08T09:26:21.576Z,102179.50
2022-08-08T09:27:57.032Z,102176.53
2022-08-08T09:28:48.790Z,102170.00
2022-08-08T09:30:03.167Z,102178.31
2022-08-08T09:31:13.246Z,102178.06
2022-08-08T09:32:31.244Z,102171.31
2022-08-08T09:34:15.932Z,102171.91
2022-08-08T09:35:08.137Z,102170.81
2022-08-08T09:36:19.176Z,102173.03
2022-08-08T09:38:01.110Z,102172.59
2022-08-08T09:39:01.569Z,102174.81
2022-08-08T09:40:11.396Z,102172.09
2022-08-08T09:41:19.235Z,102174.31
2022-08-08T09:42:26.077Z,102167.53
2022-08-08T09:44:05.714Z,102168.13
2022-08-08T09:45:15.743Z,102176.63
2022-08-08T09:46:32.146Z,102173.41
2022-08-08T09:48:11.474Z,102175.69
2022-08-08T09:49:17.977Z,102171.84
2022-08-08T09:50:28.129Z,102170.78
2022-08-08T09:51:41.475Z,102171.38
2022-08-08T09:53:02.265Z,102177.66
2022-08-08T09:54:36.847Z,102178.50
2022-08-08T09:56:04.242Z,102180.13
2022-08-08T09:57:16.501Z,102177.16
2022-08-08T09:58:28.013Z,102182.94
2022-08-08T10:00:02.114Z,102172.03
2022-08-08T10:02:02.230Z,102168.38
2022-08-08T10:02:47.147Z,102176.66
2022-08-08T10:03:56.162Z,102192.19
2022-08-08T10:05:10.320Z,102182.09
2022-08-08T10:06:19.887Z,102175.50
2022-08-08T10:07:36.000Z,102171.13
2022-08-08T10:08:51.858Z,102173.50
2022-08-08T10:09:59.984Z,102183.00
2022-08-08T10:11:12.080Z,102182.44
2022-08-08T10:12:37.925Z,102177.72
2022-08-08T10:13:57.605Z,102171.94
2022-08-08T10:15:01.592Z,102168.38
2022-08-08T10:16:05.902Z,102166.13
2022-08-08T10:17:57.478Z,102172.69
2022-08-08T10:18:34.987Z,102176.44
2022-08-08T10:19:46.309Z,102175.06
2022-08-08T10:21:23.191Z,102171.50
2022-08-08T10:22:29.693Z,102166.28
2022-08-08T10:23:44.106Z,102163.56
2022-08-08T10:24:55.229Z,102166.03
2022-08-08T10:25:58.730Z,102162.25
2022-08-08T10:27:04.302Z,102170.16
2022-08-08T10:28:09.848Z,102164.50
2022-08-08T10:29:21.142Z,102166.13
2022-08-08T10:31:00.232Z,102165.06
2022-08-08T10:32:08.177Z,102171.19
2022-08-08T10:33:12.333Z,102175.19
2022-08-08T10:34:19.616Z,102168.72
2022-08-08T10:36:09.452Z,102159.59
2022-08-08T10:36:51.483Z,102166.84
2022-08-08T10:37:57.351Z,102156.59
2022-08-08T10:39:03.824Z,102164.38
2022-08-08T10:40:19.706Z,102160.66
2022-08-08T10:41:25.619Z,102150.56
2022-08-08T10:42:43.604Z,102161.31
2022-08-08T10:43:50.697Z,102164.03
2022-08-08T10:45:02.038Z,102159.09
2022-08-08T10:46:05.261Z,102163.78
2022-08-08T10:47:30.490Z,102158.34
2022-08-08T10:48:56.886Z,102152.06
2022-08-08T10:50:04.646Z,102155.84
2022-08-08T10:51:13.336Z,102160.19
2022-08-08T10:52:23.811Z,102177.28
2022-08-08T10:53:56.269Z,102161.03
2022-08-08T10:55:05.219Z,102164.78
2022-08-08T10:56:27.605Z,102162.78
2022-08-08T10:57:50.049Z,102166.75
2022-08-08T10:58:59.090Z,102163.94
2022-08-08T11:00:01.402Z,102163.59
2022-08-08T11:01:11.654Z,102167.66
2022-08-08T11:02:15.106Z,102167.88
2022-08-08T11:03:37.224Z,102161.63
2022-08-08T11:04:53.547Z,102161.13
2022-08-08T11:06:00.462Z,102165.25
2022-08-08T11:07:03.429Z,102169.16
2022-08-08T11:08:38.100Z,102161.88
2022-08-08T11:09:32.386Z,102162.31
2022-08-08T11:10:34.842Z,102169.22
2022-08-08T11:12:06.126Z,102165.31
2022-08-08T11:14:25.817Z,102171.06
2022-08-08T11:15:31.484Z,102169.53
2022-08-08T11:16:35.596Z,102167.22
2022-08-08T11:17:58.555Z,102163.25
2022-08-08T11:19:05.840Z,102153.53
2022-08-08T11:20:17.922Z,102160.47
2022-08-08T11:21:22.148Z,102157.78
2022-08-08T11:22:40.039Z,102157.31
2022-08-08T11:23:44.021Z,102156.22
2022-08-08T11:24:49.035Z,102165.50
2022-08-08T11:25:57.131Z,102153.47
2022-08-08T11:27:19.906Z,102159.19
2022-08-08T11:28:29.596Z,102152.94
2022-08-08T11:29:50.766Z,102157.56
2022-08-08T11:31:00.811Z,102157.56
2022-08-08T11:32:07.910Z,102150.28
2022-08-08T11:33:12.951Z,102150.81
2022-08-08T11:34:22.793Z,102153.59
2022-08-08T11:35:38.268Z,102156.19
2022-08-08T11:36:51.080Z,102154.31
2022-08-08T11:38:39.646Z,102158.44
2022-08-08T11:39:20.005Z,102151.09
2022-08-08T11:40:26.539Z,102164.03
2022-08-08T11:41:32.280Z,102151.75
2022-08-08T11:42:40.428Z,102154.22
2022-08-08T11:43:48.863Z,102147.44
2022-08-08T11:44:55.234Z,102150.72
2022-08-08T11:46:11.869Z,102144.50
2022-08-08T11:47:21.070Z,102160.09
2022-08-08T11:48:27.846Z,102153.31
2022-08-08T11:49:32.277Z,102155.25
2022-08-08T11:50:35.328Z,102153.09
2022-08-08T11:51:50.464Z,102154.22
2022-08-08T11:52:57.818Z,102144.47
2022-08-08T11:54:02.377Z,102151.31
2022-08-08T11:55:17.444Z,102150.53
2022-08-08T11:56:23.918Z,102159.06
2022-08-08T11:57:30.289Z,102150.31
2022-08-08T11:58:39.023Z,102146.00
2022-08-08T12:00:01.939Z,102153.41
2022-08-08T12:01:18.629Z,102152.34
2022-08-08T12:02:33.899Z,102165.28
2022-08-08T12:03:37.866Z,102156.81
2022-08-08T12:04:40.299Z,102152.41
2022-08-08T12:05:45.727Z,102160.59
2022-08-08T12:06:49.290Z,102156.22
2022-08-08T12:07:55.823Z,102150.19
2022-08-08T12:09:06.393Z,102154.28
2022-08-08T12:10:13.604Z,102150.72
2022-08-08T12:11:26.961Z,102153.19
2022-08-08T12:12:42.104Z,102151.81
2022-08-08T12:14:03.907Z,102153.50
2022-08-08T12:15:09.590Z,102155.97
2022-08-08T12:16:15.594Z,102153.81
2022-08-08T12:17:18.005Z,102148.06
2022-08-08T12:18:25.245Z,102151.38
2022-08-08T12:19:37.739Z,102155.19
2022-08-08T12:20:54.280Z,102154.88
2022-08-08T12:22:12.955Z,102153.50
2022-08-08T12:23:40.200Z,102146.88
2022-08-08T12:24:54.120Z,102147.16
2022-08-08T12:26:10.682Z,102152.34
2022-08-08T12:27:20.840Z,102152.41
2022-08-08T12:28:23.642Z,102146.97
2022-08-08T12:29:42.151Z,102138.81
2022-08-08T12:30:48.153Z,102142.72
2022-08-08T12:32:09.319Z,102143.63
2022-08-08T12:33:20.728Z,102140.97
2022-08-08T12:34:36.384Z,102141.81
2022-08-08T12:35:41.142Z,102146.25
2022-08-08T12:37:05.332Z,102147.06
2022-08-08T12:38:17.855Z,102149.03
2022-08-08T12:40:01.818Z,102141.91
2022-08-08T12:40:56.004Z,102144.16
2022-08-08T12:42:01.804Z,102143.66
2022-08-08T12:43:08.137Z,102140.13
2022-08-08T12:44:14.261Z,102138.53
2022-08-08T12:45:58.329Z,102141.34
2022-08-08T12:47:09.063Z,102139.94
2022-08-08T12:48:36.460Z,102144.06
2022-08-08T12:49:45.129Z,102139.91
2022-08-08T12:50:50.542Z,102129.53
2022-08-08T12:51:58.516Z,102136.38
2022-08-08T12:53:18.829Z,102139.13
2022-08-08T12:54:25.295Z,102133.66
2022-08-08T12:55:29.247Z,102148.22
2022-08-08T12:56:47.832Z,102138.91
2022-08-08T12:57:56.605Z,102133.44
2022-08-08T12:59:00.725Z,102140.88
2022-08-08T13:00:13.613Z,102132.38
2022-08-08T13:01:24.585Z,102132.38
2022-08-08T13:02:42.271Z,102139.47
2022-08-08T13:03:53.677Z,102138.38
2022-08-08T13:04:59.285Z,102135.06
2022-08-08T13:06:13.917Z,102128.47
2022-08-08T13:07:17.863Z,102135.59
2022-08-08T13:08:53.757Z,102141.59
2022-08-08T13:10:05.207Z,102131.97
2022-08-08T13:11:17.860Z,102131.94
2022-08-08T13:12:34.296Z,102131.91
2022-08-08T13:13:38.647Z,102128.31
2022-08-08T13:14:52.867Z,102123.09
2022-08-08T13:15:56.282Z,102126.91
2022-08-08T13:17:01.506Z,102121.94
2022-08-08T13:18:10.589Z,102131.44
2022-08-08T13:19:20.328Z,102127.56
2022-08-08T13:20:27.467Z,102125.28
2022-08-08T13:21:49.171Z,102133.16
2022-08-08T13:23:26.791Z,102126.56
2022-08-08T13:24:18.999Z,102126.81
2022-08-08T13:25:40.301Z,102122.19
2022-08-08T13:26:43.277Z,102130.72
2022-08-08T13:27:54.578Z,102126.19
2022-08-08T13:28:59.264Z,102132.56
2022-08-08T13:30:05.880Z,102126.84
2022-08-08T13:31:16.151Z,102131.78
2022-08-08T13:32:23.879Z,102137.25
2022-08-08T13:33:27.799Z,102142.44
2022-08-08T13:34:49.520Z,102139.38
2022-08-08T13:35:55.546Z,102136.31
2022-08-08T13:37:00.111Z,102144.41
2022-08-08T13:38:06.815Z,102134.22
2022-08-08T13:39:11.493Z,102133.91
2022-08-08T13:40:17.879Z,102136.84
2022-08-08T13:41:39.614Z,102134.34
2022-08-08T13:42:52.955Z,102139.22
2022-08-08T13:43:55.274Z,102139.16
2022-08-08T13:45:02.372Z,102138.84
2022-08-08T13:46:26.533Z,102138.25
2022-08-08T13:47:32.678Z,102130.00
2022-08-08T13:48:44.773Z,102132.19
2022-08-08T13:50:35.883Z,102131.34
2022-08-08T13:51:37.637Z,102130.78
2022-08-08T13:52:48.217Z,102142.22
2022-08-08T13:53:53.415Z,102144.38
2022-08-08T13:55:07.572Z,102144.06
2022-08-08T13:56:11.468Z,102138.03
2022-08-08T13:57:17.624Z,102133.91
2022-08-08T13:58:57.914Z,102134.97
2022-08-08T14:00:09.045Z,102132.25
2022-08-08T14:01:18.473Z,102134.44
2022-08-08T14:02:30.938Z,102138.56
2022-08-08T14:03:52.585Z,102133.91
2022-08-08T14:05:04.986Z,102142.69
2022-08-08T14:06:33.272Z,102140.75
2022-08-08T14:07:38.503Z,102134.50
2022-08-08T14:08:45.839Z,102139.97
2022-08-08T14:10:05.314Z,102135.56
2022-08-08T14:11:12.850Z,102128.97
2022-08-08T14:12:18.394Z,102142.06
2022-08-08T14:13:30.596Z,102143.69
2022-08-08T14:14:39.680Z,102136.34
2022-08-08T14:15:46.135Z,102139.91
2022-08-08T14:16:52.851Z,102147.53
2022-08-08T14:18:36.841Z,102135.75
2022-08-08T14:19:55.621Z,102139.84
2022-08-08T14:21:03.655Z,102135.97
2022-08-08T14:22:20.172Z,102142.78
2022-08-08T14:24:06.735Z,102139.50
2022-08-08T14:24:59.641Z,102137.50
2022-08-08T14:26:10.646Z,102145.97
2022-08-08T14:27:19.574Z,102135.28
2022-08-08T14:28:30.695Z,102139.69
2022-08-08T14:29:40.331Z,102138.59
2022-08-08T14:30:50.028Z,102141.06
2022-08-08T14:32:08.733Z,102138.34
2022-08-08T14:33:27.783Z,102147.63
2022-08-08T14:34:42.066Z,102136.97